sensor_id;sensor_type;location;lat;lon;timestamp;temperature;humidity
70830;SHT30;58451;51.550;7.208;2022-08-21T00:01:52;17.86;65.98
70830;SHT30;58451;51.550;7.208;2022-08-21T00:04:19;17.87;66.14
70830;SHT30;58451;51.550;7.208;2022-08-21T00:06:48;17.85;66.19
70830;SHT30;58451;51.550;7.208;2022-08-21T00:09:19;17.84;66.33
70830;SHT30;58451;51.550;7.208;2022-08-21T00:11:47;17.80;66.55
70830;SHT30;58451;51.550;7.208;2022-08-21T00:14:14;17.76;66.61
70830;SHT30;58451;51.550;7.208;2022-08-21T00:16:42;17.71;66.83
70830;SHT30;58451;51.550;7.208;2022-08-21T00:19:09;17.66;66.78
70830;SHT30;58451;51.550;7.208;2022-08-21T00:21:36;17.61;66.83
70830;SHT30;58451;51.550;7.208;2022-08-21T00:24:03;17.57;66.91
70830;SHT30;58451;51.550;7.208;2022-08-21T00:26:33;17.51;66.98
70830;SHT30;58451;51.550;7.208;2022-08-21T00:29:02;17.46;67.21
70830;SHT30;58451;51.550;7.208;2022-08-21T00:31:30;17.39;67.34
70830;SHT30;58451;51.550;7.208;2022-08-21T00:33:57;17.34;67.45
70830;SHT30;58451;51.550;7.208;2022-08-21T00:36:26;17.28;67.61
70830;SHT30;58451;51.550;7.208;2022-08-21T00:38:54;17.21;67.68
70830;SHT30;58451;51.550;7.208;2022-08-21T00:41:21;17.16;67.83
70830;SHT30;58451;51.550;7.208;2022-08-21T00:44:03;17.08;67.98
70830;SHT30;58451;51.550;7.208;2022-08-21T00:46:36;17.02;68.11
70830;SHT30;58451;51.550;7.208;2022-08-21T00:49:05;16.97;68.22
70830;SHT30;58451;51.550;7.208;2022-08-21T00:51:39;16.92;68.38
70830;SHT30;58451;51.550;7.208;2022-08-21T00:54:12;16.89;68.57
70830;SHT30;58451;51.550;7.208;2022-08-21T00:56:45;16.88;68.78
70830;SHT30;58451;51.550;7.208;2022-08-21T00:59:17;16.88;68.95
70830;SHT30;58451;51.550;7.208;2022-08-21T01:01:46;16.88;69.15
70830;SHT30;58451;51.550;7.208;2022-08-21T01:04:16;16.91;69.25
70830;SHT30;58451;51.550;7.208;2022-08-21T01:06:43;16.93;70.98
70830;SHT30;58451;51.550;7.208;2022-08-21T01:09:11;16.96;70.75
70830;SHT30;58451;51.550;7.208;2022-08-21T01:11:39;17.00;70.24
70830;SHT30;58451;51.550;7.208;2022-08-21T01:14:11;17.01;70.04
70830;SHT30;58451;51.550;7.208;2022-08-21T01:16:41;17.03;70.46
70830;SHT30;58451;51.550;7.208;2022-08-21T01:19:13;17.04;70.18
70830;SHT30;58451;51.550;7.208;2022-08-21T01:21:43;17.04;70.56
70830;SHT30;58451;51.550;7.208;2022-08-21T01:24:11;17.03;70.45
70830;SHT30;58451;51.550;7.208;2022-08-21T01:26:39;17.01;70.44
70830;SHT30;58451;51.550;7.208;2022-08-21T01:32:11;16.92;71.24
70830;SHT30;58451;51.550;7.208;2022-08-21T01:34:42;16.89;71.01
70830;SHT30;58451;51.550;7.208;2022-08-21T01:37:12;16.83;71.53
70830;SHT30;58451;51.550;7.208;2022-08-21T01:39:43;16.78;70.92
70830;SHT30;58451;51.550;7.208;2022-08-21T01:42:11;16.72;71.53
70830;SHT30;58451;51.550;7.208;2022-08-21T01:44:40;16.66;71.51
70830;SHT30;58451;51.550;7.208;2022-08-21T01:47:09;16.61;71.88
70830;SHT30;58451;51.550;7.208;2022-08-21T01:49:42;16.55;71.75
70830;SHT30;58451;51.550;7.208;2022-08-21T01:52:11;16.48;71.51
70830;SHT30;58451;51.550;7.208;2022-08-21T01:54:38;16.41;71.39
70830;SHT30;58451;51.550;7.208;2022-08-21T01:57:06;16.35;71.41
70830;SHT30;58451;51.550;7.208;2022-08-21T01:59:34;16.27;71.48
70830;SHT30;58451;51.550;7.208;2022-08-21T02:02:02;16.22;71.70
70830;SHT30;58451;51.550;7.208;2022-08-21T02:04:29;16.16;71.78
70830;SHT30;58451;51.550;7.208;2022-08-21T02:06:57;16.09;71.93
70830;SHT30;58451;51.550;7.208;2022-08-21T02:09:26;16.03;72.08
70830;SHT30;58451;51.550;7.208;2022-08-21T02:11:55;15.97;72.16
70830;SHT30;58451;51.550;7.208;2022-08-21T02:14:23;15.91;72.29
70830;SHT30;58451;51.550;7.208;2022-08-21T02:16:57;15.86;72.41
70830;SHT30;58451;51.550;7.208;2022-08-21T02:19:35;15.80;72.57
70830;SHT30;58451;51.550;7.208;2022-08-21T02:22:09;15.74;72.75
70830;SHT30;58451;51.550;7.208;2022-08-21T02:24:37;15.69;72.89
70830;SHT30;58451;51.550;7.208;2022-08-21T02:27:23;15.63;73.04
70830;SHT30;58451;51.550;7.208;2022-08-21T02:29:54;15.59;73.16
70830;SHT30;58451;51.550;7.208;2022-08-21T02:32:23;15.53;73.29
70830;SHT30;58451;51.550;7.208;2022-08-21T02:34:52;15.47;73.44
70830;SHT30;58451;51.550;7.208;2022-08-21T02:37:21;15.43;73.59
70830;SHT30;58451;51.550;7.208;2022-08-21T02:39:49;15.38;73.66
70830;SHT30;58451;51.550;7.208;2022-08-21T02:42:16;15.33;73.79
70830;SHT30;58451;51.550;7.208;2022-08-21T02:44:43;15.29;73.93
70830;SHT30;58451;51.550;7.208;2022-08-21T02:47:10;15.24;74.05
70830;SHT30;58451;51.550;7.208;2022-08-21T02:49:37;15.20;74.23
70830;SHT30;58451;51.550;7.208;2022-08-21T02:52:03;15.15;74.39
70830;SHT30;58451;51.550;7.208;2022-08-21T02:54:32;15.11;74.49
70830;SHT30;58451;51.550;7.208;2022-08-21T02:56:59;15.07;74.63
70830;SHT30;58451;51.550;7.208;2022-08-21T02:59:26;15.03;74.69
70830;SHT30;58451;51.550;7.208;2022-08-21T03:01:53;14.98;74.81
70830;SHT30;58451;51.550;7.208;2022-08-21T03:04:22;14.96;75.01
70830;SHT30;58451;51.550;7.208;2022-08-21T03:06:48;14.92;75.11
70830;SHT30;58451;51.550;7.208;2022-08-21T03:09:15;14.90;75.22
70830;SHT30;58451;51.550;7.208;2022-08-21T03:11:42;14.87;75.33
70830;SHT30;58451;51.550;7.208;2022-08-21T03:14:10;14.84;75.47
70830;SHT30;58451;51.550;7.208;2022-08-21T03:16:36;14.82;75.60
70830;SHT30;58451;51.550;7.208;2022-08-21T03:19:03;14.80;75.75
70830;SHT30;58451;51.550;7.208;2022-08-21T03:21:30;14.78;75.87
70830;SHT30;58451;51.550;7.208;2022-08-21T03:23:57;14.76;75.95
70830;SHT30;58451;51.550;7.208;2022-08-21T03:26:28;14.73;75.98
70830;SHT30;58451;51.550;7.208;2022-08-21T03:28:56;14.70;76.11
70830;SHT30;58451;51.550;7.208;2022-08-21T03:31:24;14.67;76.28
70830;SHT30;58451;51.550;7.208;2022-08-21T03:33:55;14.66;76.34
70830;SHT30;58451;51.550;7.208;2022-08-21T03:36:22;14.63;76.45
70830;SHT30;58451;51.550;7.208;2022-08-21T03:38:50;14.61;76.43
70830;SHT30;58451;51.550;7.208;2022-08-21T03:41:17;14.60;76.73
70830;SHT30;58451;51.550;7.208;2022-08-21T03:43:44;14.61;79.34
70830;SHT30;58451;51.550;7.208;2022-08-21T03:46:10;14.61;78.79
70830;SHT30;58451;51.550;7.208;2022-08-21T03:48:37;14.61;78.29
70830;SHT30;58451;51.550;7.208;2022-08-21T03:51:04;14.61;78.59
70830;SHT30;58451;51.550;7.208;2022-08-21T03:53:33;14.59;78.74
70830;SHT30;58451;51.550;7.208;2022-08-21T03:56:00;14.60;79.74
70830;SHT30;58451;51.550;7.208;2022-08-21T03:58:27;14.58;78.78
70830;SHT30;58451;51.550;7.208;2022-08-21T04:00:57;14.55;78.40
70830;SHT30;58451;51.550;7.208;2022-08-21T04:03:27;14.52;78.22
70830;SHT30;58451;51.550;7.208;2022-08-21T04:05:55;14.47;78.17
70830;SHT30;58451;51.550;7.208;2022-08-21T04:08:22;14.44;78.10
70830;SHT30;58451;51.550;7.208;2022-08-21T04:10:50;14.40;78.11
70830;SHT30;58451;51.550;7.208;2022-08-21T04:13:20;14.37;78.17
70830;SHT30;58451;51.550;7.208;2022-08-21T04:15:49;14.35;78.86
70830;SHT30;58451;51.550;7.208;2022-08-21T04:18:16;14.33;79.23
70830;SHT30;58451;51.550;7.208;2022-08-21T04:20:43;14.31;78.78
70830;SHT30;58451;51.550;7.208;2022-08-21T04:23:16;14.29;79.00
70830;SHT30;58451;51.550;7.208;2022-08-21T04:25:49;14.27;78.83
70830;SHT30;58451;51.550;7.208;2022-08-21T04:28:19;14.23;78.74
70830;SHT30;58451;51.550;7.208;2022-08-21T04:30:49;14.20;78.69
70830;SHT30;58451;51.550;7.208;2022-08-21T04:33:19;14.19;78.62
70830;SHT30;58451;51.550;7.208;2022-08-21T04:35:47;14.20;78.84
70830;SHT30;58451;51.550;7.208;2022-08-21T04:38:15;14.20;78.82
70830;SHT30;58451;51.550;7.208;2022-08-21T04:40:42;14.22;78.94
70830;SHT30;58451;51.550;7.208;2022-08-21T04:43:10;14.23;78.90
70830;SHT30;58451;51.550;7.208;2022-08-21T04:45:39;14.23;78.86
70830;SHT30;58451;51.550;7.208;2022-08-21T04:48:11;14.23;78.85
70830;SHT30;58451;51.550;7.208;2022-08-21T04:50:51;14.24;78.83
70830;SHT30;58451;51.550;7.208;2022-08-21T04:56:08;14.29;78.98
70830;SHT30;58451;51.550;7.208;2022-08-21T04:58:41;14.33;78.96
70830;SHT30;58451;51.550;7.208;2022-08-21T05:01:11;14.38;78.94
70830;SHT30;58451;51.550;7.208;2022-08-21T05:03:45;14.44;78.93
70830;SHT30;58451;51.550;7.208;2022-08-21T05:06:17;14.53;78.85
70830;SHT30;58451;51.550;7.208;2022-08-21T05:08:46;14.61;78.82
70830;SHT30;58451;51.550;7.208;2022-08-21T05:11:27;14.71;78.79
70830;SHT30;58451;51.550;7.208;2022-08-21T05:13:56;14.80;78.77
70830;SHT30;58451;51.550;7.208;2022-08-21T05:16:24;14.90;78.73
70830;SHT30;58451;51.550;7.208;2022-08-21T05:19:03;15.02;78.71
70830;SHT30;58451;51.550;7.208;2022-08-21T05:21:32;15.15;78.86
70830;SHT30;58451;51.550;7.208;2022-08-21T05:24:06;15.30;79.14
70830;SHT30;58451;51.550;7.208;2022-08-21T05:26:33;15.44;79.36
70830;SHT30;58451;51.550;7.208;2022-08-21T05:29:11;15.60;79.50
70830;SHT30;58451;51.550;7.208;2022-08-21T05:31:44;15.73;79.42
70830;SHT30;58451;51.550;7.208;2022-08-21T05:34:23;15.79;78.95
70830;SHT30;58451;51.550;7.208;2022-08-21T05:36:50;15.88;78.89
70830;SHT30;58451;51.550;7.208;2022-08-21T05:39:17;15.99;78.60
70830;SHT30;58451;51.550;7.208;2022-08-21T05:41:44;16.09;78.34
70830;SHT30;58451;51.550;7.208;2022-08-21T05:44:11;16.20;78.30
70830;SHT30;58451;51.550;7.208;2022-08-21T05:46:38;16.32;78.13
70830;SHT30;58451;51.550;7.208;2022-08-21T05:49:05;16.44;78.04
70830;SHT30;58451;51.550;7.208;2022-08-21T05:51:32;16.58;77.74
70830;SHT30;58451;51.550;7.208;2022-08-21T05:53:58;16.70;77.45
70830;SHT30;58451;51.550;7.208;2022-08-21T05:56:25;16.81;77.20
70830;SHT30;58451;51.550;7.208;2022-08-21T05:58:52;16.93;76.99
70830;SHT30;58451;51.550;7.208;2022-08-21T06:01:19;17.04;76.79
70830;SHT30;58451;51.550;7.208;2022-08-21T06:03:46;17.16;76.56
70830;SHT30;58451;51.550;7.208;2022-08-21T06:06:13;17.27;76.41
70830;SHT30;58451;51.550;7.208;2022-08-21T06:08:39;17.38;76.12
70830;SHT30;58451;51.550;7.208;2022-08-21T06:11:07;17.51;75.85
70830;SHT30;58451;51.550;7.208;2022-08-21T06:13:35;17.64;75.57
70830;SHT30;58451;51.550;7.208;2022-08-21T06:16:04;17.77;75.30
70830;SHT30;58451;51.550;7.208;2022-08-21T06:18:41;17.90;75.08
70830;SHT30;58451;51.550;7.208;2022-08-21T06:21:11;18.03;74.84
70830;SHT30;58451;51.550;7.208;2022-08-21T06:23:39;18.18;74.59
70830;SHT30;58451;51.550;7.208;2022-08-21T06:26:09;18.30;73.88
70830;SHT30;58451;51.550;7.208;2022-08-21T06:28:39;18.39;73.48
70830;SHT30;58451;51.550;7.208;2022-08-21T06:31:14;18.51;73.45
70830;SHT30;58451;51.550;7.208;2022-08-21T06:33:48;18.63;72.34
70830;SHT30;58451;51.550;7.208;2022-08-21T06:36:16;18.73;71.61
70830;SHT30;58451;51.550;7.208;2022-08-21T06:38:44;18.84;71.64
70830;SHT30;58451;51.550;7.208;2022-08-21T06:41:17;18.98;71.54
70830;SHT30;58451;51.550;7.208;2022-08-21T06:43:51;19.13;71.17
70830;SHT30;58451;51.550;7.208;2022-08-21T06:46:18;19.26;69.98
70830;SHT30;58451;51.550;7.208;2022-08-21T06:48:46;19.37;70.22
70830;SHT30;58451;51.550;7.208;2022-08-21T06:51:13;19.49;68.36
70830;SHT30;58451;51.550;7.208;2022-08-21T06:53:39;19.58;68.88
70830;SHT30;58451;51.550;7.208;2022-08-21T06:56:06;19.71;69.07
70830;SHT30;58451;51.550;7.208;2022-08-21T06:58:34;19.84;68.74
70830;SHT30;58451;51.550;7.208;2022-08-21T07:01:01;19.96;67.33
70830;SHT30;58451;51.550;7.208;2022-08-21T07:03:31;20.04;67.55
70830;SHT30;58451;51.550;7.208;2022-08-21T07:06:06;20.14;67.05
70830;SHT30;58451;51.550;7.208;2022-08-21T07:08:35;20.24;67.20
70830;SHT30;58451;51.550;7.208;2022-08-21T07:11:06;20.38;66.49
70830;SHT30;58451;51.550;7.208;2022-08-21T07:13:43;20.44;63.59
70830;SHT30;58451;51.550;7.208;2022-08-21T07:16:10;20.46;63.58
70830;SHT30;58451;51.550;7.208;2022-08-21T07:18:38;20.55;63.34
70830;SHT30;58451;51.550;7.208;2022-08-21T07:21:05;20.61;63.06
70830;SHT30;58451;51.550;7.208;2022-08-21T07:23:36;20.67;62.28
70830;SHT30;58451;51.550;7.208;2022-08-21T07:26:08;20.77;62.77
70830;SHT30;58451;51.550;7.208;2022-08-21T07:28:37;20.89;61.94
70830;SHT30;58451;51.550;7.208;2022-08-21T07:31:04;21.03;61.68
70830;SHT30;58451;51.550;7.208;2022-08-21T07:33:33;21.18;61.99
70830;SHT30;58451;51.550;7.208;2022-08-21T07:36:02;21.29;60.03
70830;SHT30;58451;51.550;7.208;2022-08-21T07:38:29;21.41;59.36
70830;SHT30;58451;51.550;7.208;2022-08-21T07:40:56;21.47;57.27
70830;SHT30;58451;51.550;7.208;2022-08-21T07:43:27;21.47;55.34
70830;SHT30;58451;51.550;7.208;2022-08-21T07:45:55;21.49;55.19
70830;SHT30;58451;51.550;7.208;2022-08-21T07:48:23;21.53;54.98
70830;SHT30;58451;51.550;7.208;2022-08-21T07:50:50;21.57;55.83
70830;SHT30;58451;51.550;7.208;2022-08-21T07:53:18;21.69;55.47
70830;SHT30;58451;51.550;7.208;2022-08-21T07:55:45;21.80;56.64
70830;SHT30;58451;51.550;7.208;2022-08-21T07:58:11;21.95;55.88
70830;SHT30;58451;51.550;7.208;2022-08-21T08:00:39;22.05;53.93
70830;SHT30;58451;51.550;7.208;2022-08-21T08:03:07;22.00;53.93
70830;SHT30;58451;51.550;7.208;2022-08-21T08:05:35;22.09;55.20
70830;SHT30;58451;51.550;7.208;2022-08-21T08:08:03;22.25;54.80
70830;SHT30;58451;51.550;7.208;2022-08-21T08:10:31;22.29;51.96
70830;SHT30;58451;51.550;7.208;2022-08-21T08:12:58;22.22;51.64
70830;SHT30;58451;51.550;7.208;2022-08-21T08:15:26;22.11;51.32
70830;SHT30;58451;51.550;7.208;2022-08-21T08:17:55;22.12;52.10
70830;SHT30;58451;51.550;7.208;2022-08-21T08:20:24;22.20;51.96
70830;SHT30;58451;51.550;7.208;2022-08-21T08:22:55;22.29;52.12
70830;SHT30;58451;51.550;7.208;2022-08-21T08:25:23;22.43;52.68
70830;SHT30;58451;51.550;7.208;2022-08-21T08:28:01;22.55;51.60
70830;SHT30;58451;51.550;7.208;2022-08-21T08:30:43;22.67;52.13
70830;SHT30;58451;51.550;7.208;2022-08-21T08:33:12;22.82;51.58
70830;SHT30;58451;51.550;7.208;2022-08-21T08:35:41;22.85;50.78
70830;SHT30;58451;51.550;7.208;2022-08-21T08:38:13;22.83;49.97
70830;SHT30;58451;51.550;7.208;2022-08-21T08:43:41;22.59;50.00
70830;SHT30;58451;51.550;7.208;2022-08-21T08:46:16;22.44;50.65
70830;SHT30;58451;51.550;7.208;2022-08-21T08:49:03;22.43;50.92
70830;SHT30;58451;51.550;7.208;2022-08-21T08:51:51;22.52;51.22
70830;SHT30;58451;51.550;7.208;2022-08-21T08:54:46;22.63;49.74
70830;SHT30;58451;51.550;7.208;2022-08-21T08:57:28;22.58;49.41
70830;SHT30;58451;51.550;7.208;2022-08-21T08:59:58;22.61;50.06
70830;SHT30;58451;51.550;7.208;2022-08-21T09:02:38;22.76;50.01
70830;SHT30;58451;51.550;7.208;2022-08-21T09:05:10;22.83;49.39
70830;SHT30;58451;51.550;7.208;2022-08-21T09:11:00;23.15;48.77
70830;SHT30;58451;51.550;7.208;2022-08-21T09:25:53;23.57;47.39
70830;SHT30;58451;51.550;7.208;2022-08-21T09:28:33;23.57;48.30
70830;SHT30;58451;51.550;7.208;2022-08-21T09:31:06;23.68;48.82
70830;SHT30;58451;51.550;7.208;2022-08-21T09:33:50;23.81;48.55
70830;SHT30;58451;51.550;7.208;2022-08-21T09:36:33;23.79;47.92
70830;SHT30;58451;51.550;7.208;2022-08-21T09:39:05;23.70;48.20
70830;SHT30;58451;51.550;7.208;2022-08-21T09:41:34;23.79;47.94
70830;SHT30;58451;51.550;7.208;2022-08-21T09:44:04;23.83;46.89
70830;SHT30;58451;51.550;7.208;2022-08-21T09:46:34;23.78;46.96
70830;SHT30;58451;51.550;7.208;2022-08-21T09:49:03;23.84;47.01
70830;SHT30;58451;51.550;7.208;2022-08-21T09:51:33;23.86;45.30
70830;SHT30;58451;51.550;7.208;2022-08-21T09:59:42;23.57;45.01
70830;SHT30;58451;51.550;7.208;2022-08-21T10:02:22;23.58;45.08
70830;SHT30;58451;51.550;7.208;2022-08-21T10:07:29;23.62;45.01
70830;SHT30;58451;51.550;7.208;2022-08-21T10:10:09;23.67;44.75
70830;SHT30;58451;51.550;7.208;2022-08-21T10:16:02;23.89;45.05
70830;SHT30;58451;51.550;7.208;2022-08-21T10:27:45;24.38;43.05
70830;SHT30;58451;51.550;7.208;2022-08-21T10:30:38;24.35;44.12
70830;SHT30;58451;51.550;7.208;2022-08-21T10:36:12;24.76;43.70
70830;SHT30;58451;51.550;7.208;2022-08-21T10:38:58;24.88;42.82
70830;SHT30;58451;51.550;7.208;2022-08-21T10:42:17;24.82;42.68
70830;SHT30;58451;51.550;7.208;2022-08-21T10:47:45;25.15;41.77
70830;SHT30;58451;51.550;7.208;2022-08-21T10:50:30;25.29;41.75
70830;SHT30;58451;51.550;7.208;2022-08-21T10:53:33;25.27;40.20
70830;SHT30;58451;51.550;7.208;2022-08-21T10:56:17;25.02;40.22
70830;SHT30;58451;51.550;7.208;2022-08-21T11:01:48;25.16;40.94
70830;SHT30;58451;51.550;7.208;2022-08-21T11:07:53;25.09;41.20
70830;SHT30;58451;51.550;7.208;2022-08-21T11:10:39;25.20;41.80
70830;SHT30;58451;51.550;7.208;2022-08-21T11:13:44;25.36;40.76
70830;SHT30;58451;51.550;7.208;2022-08-21T11:16:37;25.31;40.29
70830;SHT30;58451;51.550;7.208;2022-08-21T11:19:21;25.46;39.60
70830;SHT30;58451;51.550;7.208;2022-08-21T11:21:58;25.63;39.52
70830;SHT30;58451;51.550;7.208;2022-08-21T11:37:01;26.26;39.19
70830;SHT30;58451;51.550;7.208;2022-08-21T11:40:11;26.38;38.10
70830;SHT30;58451;51.550;7.208;2022-08-21T11:45:52;26.32;37.92
70830;SHT30;58451;51.550;7.208;2022-08-21T11:51:33;26.54;37.84
70830;SHT30;58451;51.550;7.208;2022-08-21T12:00:24;26.66;37.75
70830;SHT30;58451;51.550;7.208;2022-08-21T12:03:05;26.66;38.17
70830;SHT30;58451;51.550;7.208;2022-08-21T12:06:00;26.77;37.67
70830;SHT30;58451;51.550;7.208;2022-08-21T12:08:34;26.82;37.22
70830;SHT30;58451;51.550;7.208;2022-08-21T12:11:23;26.71;37.54
70830;SHT30;58451;51.550;7.208;2022-08-21T12:19:08;26.90;37.54
70830;SHT30;58451;51.550;7.208;2022-08-21T12:22:13;27.04;37.67
70830;SHT30;58451;51.550;7.208;2022-08-21T12:29:50;27.14;37.69
70830;SHT30;58451;51.550;7.208;2022-08-21T12:32:57;26.85;37.81
70830;SHT30;58451;51.550;7.208;2022-08-21T12:35:31;26.79;38.26
70830;SHT30;58451;51.550;7.208;2022-08-21T12:38:17;26.92;38.10
70830;SHT30;58451;51.550;7.208;2022-08-21T12:40:56;27.01;38.15
70830;SHT30;58451;51.550;7.208;2022-08-21T12:43:51;27.08;37.16
70830;SHT30;58451;51.550;7.208;2022-08-21T12:46:36;26.90;36.50
70830;SHT30;58451;51.550;7.208;2022-08-21T12:49:23;26.76;37.24
70830;SHT30;58451;51.550;7.208;2022-08-21T12:52:06;26.80;36.85
70830;SHT30;58451;51.550;7.208;2022-08-21T12:54:46;26.93;37.32
70830;SHT30;58451;51.550;7.208;2022-08-21T12:57:32;27.11;37.16
70830;SHT30;58451;51.550;7.208;2022-08-21T13:00:05;27.15;36.87
70830;SHT30;58451;51.550;7.208;2022-08-21T13:02:39;27.17;36.43
70830;SHT30;58451;51.550;7.208;2022-08-21T13:05:16;27.16;35.78
70830;SHT30;58451;51.550;7.208;2022-08-21T13:07:52;27.29;34.48
70830;SHT30;58451;51.550;7.208;2022-08-21T13:12:56;27.07;33.86
70830;SHT30;58451;51.550;7.208;2022-08-21T13:15:39;27.19;34.38
70830;SHT30;58451;51.550;7.208;2022-08-21T13:18:24;27.19;34.92
70830;SHT30;58451;51.550;7.208;2022-08-21T13:21:05;27.12;34.68
70830;SHT30;58451;51.550;7.208;2022-08-21T13:23:41;27.20;34.54
70830;SHT30;58451;51.550;7.208;2022-08-21T13:26:14;27.16;33.82
70830;SHT30;58451;51.550;7.208;2022-08-21T13:28:45;27.18;34.50
70830;SHT30;58451;51.550;7.208;2022-08-21T13:31:18;27.34;34.94
70830;SHT30;58451;51.550;7.208;2022-08-21T13:33:53;27.58;34.25
70830;SHT30;58451;51.550;7.208;2022-08-21T13:36:24;27.64;34.10
70830;SHT30;58451;51.550;7.208;2022-08-21T13:38:58;27.79;34.32
70830;SHT30;58451;51.550;7.208;2022-08-21T13:41:27;27.94;34.35
70830;SHT30;58451;51.550;7.208;2022-08-21T13:44:04;27.99;33.95
70830;SHT30;58451;51.550;7.208;2022-08-21T13:46:46;27.92;33.91
70830;SHT30;58451;51.550;7.208;2022-08-21T13:49:17;27.77;33.91
70830;SHT30;58451;51.550;7.208;2022-08-21T13:51:55;27.58;33.96
70830;SHT30;58451;51.550;7.208;2022-08-21T13:54:26;27.50;34.29
70830;SHT30;58451;51.550;7.208;2022-08-21T13:57:23;27.49;34.60
70830;SHT30;58451;51.550;7.208;2022-08-21T14:00:16;27.38;34.51
70830;SHT30;58451;51.550;7.208;2022-08-21T14:02:54;27.35;34.48
70830;SHT30;58451;51.550;7.208;2022-08-21T14:05:32;27.71;33.93
70830;SHT30;58451;51.550;7.208;2022-08-21T14:08:20;28.19;33.78
70830;SHT30;58451;51.550;7.208;2022-08-21T14:11:05;28.84;33.62
70830;SHT30;58451;51.550;7.208;2022-08-21T14:16:55;28.61;33.15
70830;SHT30;58451;51.550;7.208;2022-08-21T14:19:54;28.31;33.64
70830;SHT30;58451;51.550;7.208;2022-08-21T14:22:21;28.17;34.18
70830;SHT30;58451;51.550;7.208;2022-08-21T14:24:59;28.01;34.47
70830;SHT30;58451;51.550;7.208;2022-08-21T14:27:31;27.87;34.61
70830;SHT30;58451;51.550;7.208;2022-08-21T14:30:03;27.67;34.97
70830;SHT30;58451;51.550;7.208;2022-08-21T14:32:42;27.73;35.05
70830;SHT30;58451;51.550;7.208;2022-08-21T14:35:11;27.71;34.90
70830;SHT30;58451;51.550;7.208;2022-08-21T14:37:43;27.52;35.20
70830;SHT30;58451;51.550;7.208;2022-08-21T14:40:15;27.40;35.71
70830;SHT30;58451;51.550;7.208;2022-08-21T14:42:44;27.33;35.95
70830;SHT30;58451;51.550;7.208;2022-08-21T14:47:55;27.29;36.29
70830;SHT30;58451;51.550;7.208;2022-08-21T14:50:24;27.26;36.53
70830;SHT30;58451;51.550;7.208;2022-08-21T14:52:53;27.31;36.70
70830;SHT30;58451;51.550;7.208;2022-08-21T14:55:21;27.53;36.62
70830;SHT30;58451;51.550;7.208;2022-08-21T14:57:48;27.72;36.49
70830;SHT30;58451;51.550;7.208;2022-08-21T15:00:20;27.81;36.20
70830;SHT30;58451;51.550;7.208;2022-08-21T15:03:01;27.73;36.41
70830;SHT30;58451;51.550;7.208;2022-08-21T15:05:28;27.72;36.58
70830;SHT30;58451;51.550;7.208;2022-08-21T15:07:59;27.81;36.51
70830;SHT30;58451;51.550;7.208;2022-08-21T15:10:27;27.86;36.46
70830;SHT30;58451;51.550;7.208;2022-08-21T15:12:59;28.28;35.95
70830;SHT30;58451;51.550;7.208;2022-08-21T15:15:28;29.17;34.87
70830;SHT30;58451;51.550;7.208;2022-08-21T15:18:00;30.61;33.17
70830;SHT30;58451;51.550;7.208;2022-08-21T15:20:27;32.21;31.25
70830;SHT30;58451;51.550;7.208;2022-08-21T15:22:54;33.46;29.95
70830;SHT30;58451;51.550;7.208;2022-08-21T15:25:20;33.91;29.20
70830;SHT30;58451;51.550;7.208;2022-08-21T15:27:47;34.63;28.28
70830;SHT30;58451;51.550;7.208;2022-08-21T15:30:14;36.50;27.50
70830;SHT30;58451;51.550;7.208;2022-08-21T15:32:41;38.39;24.62
70830;SHT30;58451;51.550;7.208;2022-08-21T15:35:08;39.24;22.93
70830;SHT30;58451;51.550;7.208;2022-08-21T15:37:36;39.50;22.26
70830;SHT30;58451;51.550;7.208;2022-08-21T15:40:03;40.71;22.93
70830;SHT30;58451;51.550;7.208;2022-08-21T15:42:33;40.24;23.30
70830;SHT30;58451;51.550;7.208;2022-08-21T15:45:01;38.81;23.49
70830;SHT30;58451;51.550;7.208;2022-08-21T15:47:31;37.20;23.96
70830;SHT30;58451;51.550;7.208;2022-08-21T15:50:03;35.51;25.10
70830;SHT30;58451;51.550;7.208;2022-08-21T15:52:34;34.50;26.32
70830;SHT30;58451;51.550;7.208;2022-08-21T15:55:01;34.04;26.52
70830;SHT30;58451;51.550;7.208;2022-08-21T15:57:31;34.92;26.23
70830;SHT30;58451;51.550;7.208;2022-08-21T16:00:04;36.41;24.78
70830;SHT30;58451;51.550;7.208;2022-08-21T16:02:55;38.33;23.37
70830;SHT30;58451;51.550;7.208;2022-08-21T16:05:25;38.72;23.27
70830;SHT30;58451;51.550;7.208;2022-08-21T16:07:53;38.47;23.14
70830;SHT30;58451;51.550;7.208;2022-08-21T16:10:21;36.93;23.64
70830;SHT30;58451;51.550;7.208;2022-08-21T16:12:58;35.17;25.11
70830;SHT30;58451;51.550;7.208;2022-08-21T16:15:33;34.28;26.35
70830;SHT30;58451;51.550;7.208;2022-08-21T16:18:00;33.83;26.73
70830;SHT30;58451;51.550;7.208;2022-08-21T16:20:28;33.47;27.28
70830;SHT30;58451;51.550;7.208;2022-08-21T16:22:56;33.21;27.65
70830;SHT30;58451;51.550;7.208;2022-08-21T16:25:24;32.79;28.07
70830;SHT30;58451;51.550;7.208;2022-08-21T16:27:55;32.47;28.50
70830;SHT30;58451;51.550;7.208;2022-08-21T16:30:28;32.23;28.77
70830;SHT30;58451;51.550;7.208;2022-08-21T16:32:55;32.15;28.97
70830;SHT30;58451;51.550;7.208;2022-08-21T16:35:23;32.24;29.03
70830;SHT30;58451;51.550;7.208;2022-08-21T16:37:50;32.22;28.94
70830;SHT30;58451;51.550;7.208;2022-08-21T16:40:19;31.80;29.04
70830;SHT30;58451;51.550;7.208;2022-08-21T16:42:52;31.42;29.42
70830;SHT30;58451;51.550;7.208;2022-08-21T16:45:19;30.97;29.74
70830;SHT30;58451;51.550;7.208;2022-08-21T16:47:47;30.54;30.04
70830;SHT30;58451;51.550;7.208;2022-08-21T16:50:21;30.23;30.39
70830;SHT30;58451;51.550;7.208;2022-08-21T16:52:50;30.02;30.74
70830;SHT30;58451;51.550;7.208;2022-08-21T16:55:17;30.17;30.66
70830;SHT30;58451;51.550;7.208;2022-08-21T16:57:44;30.13;30.62
70830;SHT30;58451;51.550;7.208;2022-08-21T17:00:12;30.11;30.41
70830;SHT30;58451;51.550;7.208;2022-08-21T17:02:42;30.05;30.36
70830;SHT30;58451;51.550;7.208;2022-08-21T17:05:13;29.85;30.72
70830;SHT30;58451;51.550;7.208;2022-08-21T17:07:42;29.77;30.91
70830;SHT30;58451;51.550;7.208;2022-08-21T17:10:10;29.85;31.06
70830;SHT30;58451;51.550;7.208;2022-08-21T17:12:41;29.82;31.02
70830;SHT30;58451;51.550;7.208;2022-08-21T17:15:18;29.61;31.30
70830;SHT30;58451;51.550;7.208;2022-08-21T17:17:50;29.53;31.29
70830;SHT30;58451;51.550;7.208;2022-08-21T17:20:18;29.32;31.38
70830;SHT30;58451;51.550;7.208;2022-08-21T17:22:45;29.04;31.79
70830;SHT30;58451;51.550;7.208;2022-08-21T17:25:12;28.97;31.96
70830;SHT30;58451;51.550;7.208;2022-08-21T17:27:40;28.82;31.96
70830;SHT30;58451;51.550;7.208;2022-08-21T17:30:10;28.57;32.11
70830;SHT30;58451;51.550;7.208;2022-08-21T17:32:38;28.22;32.63
70830;SHT30;58451;51.550;7.208;2022-08-21T17:35:05;27.85;33.10
70830;SHT30;58451;51.550;7.208;2022-08-21T17:37:33;27.57;33.44
70830;SHT30;58451;51.550;7.208;2022-08-21T17:40:03;27.27;33.79
70830;SHT30;58451;51.550;7.208;2022-08-21T17:42:33;26.95;34.32